Latest Weather Observations for Low Isles

IDQ60801

Issued at 1:02 pm EST Saturday 30 July 2016 (issued every 30 minutes, with the page automatically refreshed every 10 minutes)

About weather observations | Map of weather stations | Latest weather observations for QLD | Other Formats
Station Details ID: 031037 Name: LOW ISLES LIGHTHOUSE Lat: -16.38 Lon: 145.56 Height: 2.9 m
Data from the previous 72 hours. | See also: Recent months at Low Isles
Date/Time
EST
Temp
°C
App
Temp
°C
Dew
Point
°C
Rel
Hum
%
Delta-T
°C
Wind Press
QNH
hPa
Press
MSL
hPa
Rain since
9am
mm
Dir  Spd
km/h
Gust
km/h
Spd
kts
Gust
kts
30/01:00pm 24.6 21.1 20.3 77 2.8 SE 39 48 21 26 1014.7 - 0.0
30/12:30pm 24.6 21.1 20.5 78 2.7 SE 39 46 21 25 1015.1 - 0.0
30/12:00pm 24.3 19.5 19.6 75 3.0 SE 44 50 24 27 1015.4 1015.3 0.0
30/11:30am 24.5 20.2 20.4 78 2.7 SE 43 48 23 26 1015.9 - 0.0
30/11:00am 24.1 19.6 19.8 77 2.8 SE 43 50 23 27 1016.3 - 0.0
30/10:30am 24.0 20.6 19.9 78 2.6 SE 37 44 20 24 1016.6 - 0.0
30/10:00am 23.7 20.1 19.4 77 2.7 SE 37 43 20 23 1016.7 - 0.0
30/09:30am 23.8 20.8 19.9 79 2.5 SSE 35 41 19 22 1016.6 - 0.0
30/09:00am 23.5 20.3 19.4 78 2.6 SSE 35 41 19 22 1016.5 1016.4 0.0
30/08:30am 23.5 20.5 19.8 80 2.4 SSE 35 43 19 23 1016.1 - 0.0
30/08:00am 23.5 20.4 19.6 79 2.5 SSE 35 44 19 24 1015.8 - 0.0
30/07:30am 23.3 19.6 19.2 78 2.6 SSE 37 43 20 23 1015.4 - 0.0
30/07:00am 23.3 19.1 19.0 77 2.7 SSE 39 44 21 24 1015.2 - 0.0
30/06:30am 23.3 18.9 19.2 78 2.6 SSE 41 44 22 24 1014.9 - 0.0
30/06:00am 23.2 19.8 19.1 78 2.6 SSE 35 39 19 21 1014.8 1014.7 0.0
30/05:30am 23.2 19.8 18.9 77 2.7 SSE 35 41 19 22 1014.4 - 0.0
30/05:00am 23.1 19.2 18.8 77 2.7 SSE 37 44 20 24 1014.2 - 0.0
30/04:30am 23.1 19.5 19.3 79 2.4 SSE 37 43 20 23 1014.2 - 0.0
30/04:00am 23.1 19.5 19.3 79 2.4 SSE 37 43 20 23 1014.2 - 0.0
30/03:30am 23.0 19.6 19.0 78 2.5 SSE 35 43 19 23 1014.3 - 0.0
30/03:00am 22.9 19.0 18.7 77 2.6 SSE 37 43 20 23 1014.4 1014.3 0.0
30/02:30am 22.8 18.5 18.6 77 2.6 SSE 39 44 21 24 1014.7 - 0.0
30/02:00am 22.7 18.7 18.5 77 2.6 SSE 37 41 20 22 1015.1 - 0.0
30/01:30am 22.6 18.7 17.9 75 2.9 SSE 35 39 19 21 1015.2 - 0.0
30/01:00am 22.7 18.8 17.8 74 3.0 SSE 35 41 19 22 1015.7 - 0.0
30/12:30am 22.8 18.8 17.5 72 3.3 SSE 35 39 19 21 1016.0 - 0.0
30/12:00am 22.9 19.2 17.4 71 3.4 SSE 33 39 18 21 1016.1 1016.0 0.0
 
Date/Time
EST
Temp
°C
App
Temp
°C
Dew
Point
°C
Rel
Hum
%
Delta-T
°C
Wind Press
QNH
hPa
Press
MSL
hPa
Rain since
9am
mm
Dir  Spd
km/h
Gust
km/h
Spd
kts
Gust
kts
29/11:30pm 22.8 19.2 17.3 71 3.4 SSE 32 35 17 19 1016.4 - 0.0
29/11:00pm 22.7 18.8 16.9 70 3.6 SSE 33 39 18 21 1016.5 - 0.0
29/10:30pm 22.6 19.3 17.1 71 3.4 S 30 35 16 19 1016.8 - 0.0
29/10:00pm 22.8 19.7 17.5 72 3.3 SSE 30 33 16 18 1016.8 - 0.0
29/09:30pm 23.0 19.2 17.2 70 3.6 SSE 33 39 18 21 1016.9 - 0.0
29/09:00pm 22.8 20.1 17.5 72 3.3 SSE 28 32 15 17 1016.8 1016.7 0.0
29/08:30pm 23.1 20.2 18.0 73 3.2 SSE 30 33 16 18 1016.9 - 0.0
29/08:00pm 23.1 19.6 18.0 73 3.2 SE 33 39 18 21 1016.6 - 0.0
29/07:30pm 23.2 19.4 18.1 73 3.2 SE 35 43 19 23 1016.3 - 0.0
29/07:00pm 23.0 19.4 17.7 72 3.3 SE 33 37 18 20 1015.8 - 0.0
29/06:30pm 23.2 19.8 18.1 73 3.2 SE 33 39 18 21 1015.6 - 0.0
29/06:00pm 23.3 19.5 18.2 73 3.2 SE 35 41 19 22 1015.3 1015.2 0.0
29/05:30pm 23.2 18.9 17.9 72 3.3 SE 37 44 20 24 1015.2 - 0.0
29/05:00pm 23.2 19.3 17.9 72 3.3 SE 35 43 19 23 1015.2 - 0.0
29/04:30pm 23.4 19.3 18.3 73 3.2 SE 37 43 20 23 1015.1 - 0.0
29/04:00pm 23.1 18.8 17.8 72 3.3 SE 37 44 20 24 1014.9 - 0.0
29/03:30pm 23.8 19.1 17.8 69 3.7 SE 39 44 21 24 1014.8 - 0.0
29/03:00pm 23.8 19.1 17.8 69 3.7 SE 39 46 21 25 1015.0 1014.9 0.0
29/02:30pm 23.5 18.8 17.7 70 3.6 SE 39 46 21 25 1015.3 - 0.0
29/02:00pm 23.7 18.2 17.7 69 3.7 SE 43 50 23 27 1015.4 - 0.0
29/01:30pm 23.5 18.8 17.7 70 3.6 SE 39 48 21 26 1015.9 - 0.0
29/01:00pm 23.7 18.3 17.9 70 3.6 SE 43 50 23 27 1016.2 - 0.0
29/12:30pm 23.4 18.2 17.4 69 3.7 SE 41 48 22 26 1016.8 - 0.0
29/12:00pm 23.2 17.3 17.2 69 3.7 SE 44 50 24 27 1017.1 1017.0 0.0
29/11:30am 23.1 16.4 17.1 69 3.7 SE 48 56 26 30 1017.4 - 0.0
29/11:00am 23.0 16.3 17.0 69 3.7 SSE 48 56 26 30 1017.9 - 0.0
29/10:30am 22.8 16.6 17.3 71 3.4 SSE 46 57 25 31 1018.1 - 0.0
29/10:00am 22.8 17.7 17.7 73 3.2 SSE 41 50 22 27 1018.0 - 0.0
29/09:30am 22.7 17.3 17.8 74 3.0 SSE 43 52 23 28 1018.0 - 0.0
29/09:00am 22.6 17.7 17.3 72 3.3 SSE 39 44 21 24 1018.1 1018.0 0.0
29/08:30am 22.6 17.8 17.5 73 3.2 SSE 39 44 21 24 1018.0 - 0.0
29/08:00am 22.6 17.2 17.1 71 3.4 SSE 41 46 22 25 1017.7 - 0.0
29/07:30am 22.7 17.8 17.4 72 3.3 SSE 39 48 21 26 1017.5 - 0.0
29/07:00am 22.6 17.6 17.1 71 3.4 SSE 39 46 21 25 1017.2 - 0.0
29/06:30am 22.7 18.2 17.4 72 3.3 SSE 37 43 20 23 1016.9 - 0.0
29/06:00am 22.7 18.6 17.4 72 3.3 SSE 35 41 19 22 1016.7 1016.6 0.0
29/05:30am 22.7 19.0 17.4 72 3.3 SSE 33 39 18 21 1016.4 - 0.0
29/05:00am 22.8 19.2 17.7 73 3.2 SSE 33 37 18 20 1016.4 - 0.0
29/04:30am 22.8 18.8 17.7 73 3.2 SSE 35 41 19 22 1016.3 - 0.0
29/04:00am 22.7 18.6 17.4 72 3.3 SSE 35 39 19 21 1016.2 - 0.0
29/03:30am 22.8 18.8 17.5 72 3.3 SSE 35 43 19 23 1016.2 - 0.0
29/03:00am 22.8 18.8 17.5 72 3.3 SSE 35 41 19 22 1016.5 1016.4 0.0
29/02:30am 22.9 18.9 17.6 72 3.3 SSE 35 41 19 22 1016.6 - 0.0
29/02:00am 22.9 18.9 17.6 72 3.3 SSE 35 41 19 22 1016.9 - 0.0
29/01:30am 22.9 19.4 17.8 73 3.2 SSE 33 39 18 21 1017.3 - 0.0
29/01:00am 23.0 18.9 18.3 75 2.9 SSE 37 43 20 23 1017.4 - 0.0
29/12:30am 22.9 19.0 17.8 73 3.2 SSE 35 43 19 23 1017.5 - 0.0
29/12:00am 23.0 18.3 17.7 72 3.3 SSE 39 46 21 25 1017.6 1017.5 0.0
 
Date/Time
EST
Temp
°C
App
Temp
°C
Dew
Point
°C
Rel
Hum
%
Delta-T
°C
Wind Press
QNH
hPa
Press
MSL
hPa
Rain since
9am
mm
Dir  Spd
km/h
Gust
km/h
Spd
kts
Gust
kts
28/11:30pm 22.9 18.6 17.8 73 3.2 SSE 37 43 20 23 1017.9 - 0.0
28/11:00pm 22.9 19.0 17.8 73 3.2 S 35 41 19 22 1018.2 - 0.0
28/10:30pm 22.9 18.6 17.8 73 3.2 S 37 43 20 23 1018.4 - 0.0
28/10:00pm 23.0 18.7 17.9 73 3.2 SSE 37 43 20 23 1018.4 - 0.0
28/09:30pm 22.8 18.5 17.0 70 3.6 SSE 35 41 19 22 1018.6 - 0.0
28/09:00pm 22.8 18.2 17.0 70 3.6 S 37 43 20 23 1018.5 1018.4 0.0
28/08:30pm 23.0 17.2 17.0 69 3.7 SSE 43 50 23 27 1018.5 - 0.0
28/08:00pm 23.0 16.7 17.2 70 3.6 SSE 46 54 25 29 1018.4 - 0.0
28/07:30pm 23.2 17.4 18.3 74 3.1 SSE 46 56 25 30 1018.0 - 0.0
28/07:00pm 23.1 16.2 17.6 71 3.4 SSE 50 56 27 30 1017.6 - 0.0
28/06:30pm 23.1 16.4 18.0 73 3.2 SE 50 57 27 31 1017.3 - 0.0
28/06:00pm 23.2 16.6 18.3 74 3.1 SSE 50 59 27 32 1017.1 1017.0 0.0
28/05:30pm 23.1 16.4 18.0 73 3.2 SSE 50 57 27 31 1016.9 - 0.0
28/05:00pm 23.0 15.3 17.5 71 3.4 SE 54 63 29 34 1016.6 - 0.0
28/04:30pm 23.1 16.5 18.2 74 3.1 SE 50 59 27 32 1016.4 - 0.0
28/04:00pm 22.8 17.1 18.6 77 2.6 SE 46 56 25 30 1016.1 - 0.0
28/03:30pm 23.4 18.0 18.3 73 3.2 SE 44 54 24 29 1016.0 - 0.0
28/03:00pm 23.5 17.4 17.7 70 3.6 SE 46 54 25 29 1016.1 1016.0 0.0
28/02:30pm 23.9 17.0 17.6 68 3.9 SE 50 59 27 32 1016.2 - 0.0
28/02:00pm 23.8 17.9 18.0 70 3.6 SE 46 56 25 30 1016.5 - 0.0
28/01:30pm 24.1 17.6 17.6 67 4.0 SE 48 56 26 30 1016.6 - 0.0
28/01:00pm 24.1 18.8 18.5 71 3.5 SE 44 54 24 29 1017.0 - 0.0
28/12:30pm 23.9 17.0 17.6 68 3.9 SE 50 57 27 31 1017.3 - 0.0
28/12:00pm 23.8 17.3 18.4 72 3.4 SE 50 61 27 33 1017.6 1017.5 0.0
28/11:30am 23.4 17.3 18.5 74 3.1 SSE 48 57 26 31 1017.9 - 0.0
28/11:00am 23.4 16.9 18.5 74 3.1 SSE 50 57 27 31 1018.3 - 0.0
28/10:30am 23.5 16.9 18.2 72 3.3 SSE 50 57 27 31 1018.4 - 0.0
28/10:00am 23.6 18.8 18.3 72 3.3 SSE 41 50 22 27 1018.6 - 0.0
28/09:30am 23.6 19.0 18.0 71 3.5 SSE 39 48 21 26 1018.7 - 0.0
28/09:00am 23.9 19.3 18.8 73 3.2 SSE 41 50 22 27 1018.8 1018.7 0.4
28/08:30am 23.6 16.9 18.0 71 3.5 SSE 50 61 27 33 1018.5 - 0.4
28/08:00am 23.8 16.9 18.4 72 3.4 SSE 52 59 28 32 1018.2 - 0.4
28/07:30am 24.0 17.1 19.3 75 3.0 SSE 54 61 29 33 1018.0 - 0.4
28/07:00am 24.4 19.8 20.1 77 2.8 SE 44 54 24 29 1017.6 - 0.4
28/06:30am 24.1 19.7 20.2 79 2.5 SSE 43 52 23 28 1017.2 - 0.4
28/06:00am 24.1 18.8 20.2 79 2.5 SSE 48 54 26 29 1016.8 1016.7 0.4
28/05:30am 24.2 18.8 20.1 78 2.7 SE 48 57 26 31 1016.6 - 0.4
28/05:00am 24.2 21.0 20.3 79 2.5 SSE 37 43 20 23 1016.5 - 0.4
28/04:30am 24.0 21.6 19.9 78 2.6 SSE 32 37 17 20 1016.3 - 0.4
28/04:00am 24.0 21.5 19.7 77 2.8 SSE 32 39 17 21 1016.4 - 0.4
28/03:30am 24.0 21.9 19.7 77 2.8 SSE 30 33 16 18 1016.5 - 0.4
28/03:00am 24.0 22.3 19.7 77 2.8 SSE 28 33 15 18 1016.6 1016.5 0.4
28/02:30am 24.1 21.5 19.6 76 2.9 SSE 32 39 17 21 1016.6 - 0.4
28/02:00am 24.1 22.4 19.8 77 2.8 SSE 28 32 15 17 1016.8 - 0.4
28/01:30am 24.2 22.3 19.3 74 3.1 SSE 28 33 15 18 1016.9 - 0.4
28/01:00am 24.2 22.6 19.3 74 3.1 SSE 26 30 14 16 1017.4 - 0.4
28/12:30am 24.2 22.6 19.3 74 3.1 S 26 30 14 16 1017.2 - 0.4
28/12:00am 24.2 22.7 19.5 75 3.0 S 26 30 14 16 1017.4 1017.3 0.4
 
Date/Time
EST
Temp
°C
App
Temp
°C
Dew
Point
°C
Rel
Hum
%
Delta-T
°C
Wind Press
QNH
hPa
Press
MSL
hPa
Rain since
9am
mm
Dir  Spd
km/h
Gust
km/h
Spd
kts
Gust
kts
27/11:30pm 24.2 23.1 19.5 75 3.0 SSE 24 28 13 15 1017.5 - 0.4
27/11:00pm 24.2 23.3 19.1 73 3.3 S 22 26 12 14 1017.5 - 0.4
27/10:30pm 24.3 23.3 19.6 75 3.0 S 24 28 13 15 1017.8 - 0.4
27/10:00pm 24.4 23.3 19.5 74 3.1 S 24 30 13 16 1017.7 - 0.4
27/09:30pm 24.5 22.7 19.6 74 3.2 SSE 28 33 15 18 1017.7 - 0.4
27/09:00pm 24.5 22.5 19.1 72 3.4 SSE 28 32 15 17 1017.7 1017.6 0.4
27/08:30pm 24.6 21.1 19.7 74 3.2 SSE 37 41 20 22 1017.4 - 0.4
27/08:00pm 24.6 20.2 19.4 73 3.3 SSE 41 46 22 25 1016.9 - 0.4
27/07:30pm 24.7 20.6 19.1 71 3.6 SSE 39 44 21 24 1016.7 - 0.4
27/07:00pm 24.8 21.2 19.4 72 3.5 SSE 37 44 20 24 1016.4 - 0.4
27/06:30pm 25.0 21.4 19.4 71 3.6 SSE 37 44 20 24 1016.0 - 0.4
27/06:00pm 24.9 22.3 19.5 72 3.5 SSE 32 35 17 19 1015.7 1015.6 0.4
27/05:30pm 24.8 21.9 20.1 75 3.0 SSE 35 39 19 21 1015.3 - 0.4
27/05:00pm 24.8 21.2 20.1 75 3.0 SSE 39 44 21 24 1014.8 - 0.4
27/04:30pm 24.9 20.5 20.4 76 2.9 SSE 44 52 24 28 1014.7 - 0.4
27/04:00pm 24.7 19.9 20.4 77 2.8 SE 46 54 25 29 1014.4 - 0.4
27/03:30pm 24.8 21.0 20.5 77 2.8 SSE 41 48 22 26 1014.4 - 0.4
27/03:00pm 24.7 20.3 20.4 77 2.8 SSE 44 52 24 28 1014.3 1014.2 0.4
27/02:30pm 24.7 20.4 20.4 77 2.8 SE 43 52 23 28 1014.5 - 0.4
27/02:00pm 24.7 20.3 20.4 77 2.8 SSE 44 48 24 26 1014.5 - 0.4
27/01:30pm 24.5 20.1 20.6 79 2.5 SSE 44 50 24 27 1014.8 - 0.4

Other Formats:

Comma delimited format used in spreadsheet applications
http://www.bom.gov.au/fwo/IDQ60801/IDQ60801.94285.axf

JavaScript Object Notation format (JSON) in row-major order
http://www.bom.gov.au/fwo/IDQ60801/IDQ60801.94285.json